sensor_id;sensor_type;location;lat;lon;timestamp;P1;durP1;ratioP1;P2;durP2;ratioP2
82288;SDS011;71889;39.264;-120.910;2023-09-07T00:00:58;2.42;;;1.70;;
82288;SDS011;71889;39.264;-120.910;2023-09-07T00:03:26;4.47;;;1.75;;
82288;SDS011;71889;39.264;-120.910;2023-09-07T00:05:53;6.07;;;1.80;;
82288;SDS011;71889;39.264;-120.910;2023-09-07T00:08:19;4.43;;;1.73;;
82288;SDS011;71889;39.264;-120.910;2023-09-07T00:10:46;4.25;;;1.90;;
82288;SDS011;71889;39.264;-120.910;2023-09-07T00:13:13;4.90;;;1.70;;
82288;SDS011;71889;39.264;-120.910;2023-09-07T00:15:39;3.97;;;1.92;;
82288;SDS011;71889;39.264;-120.910;2023-09-07T00:18:08;4.05;;;1.80;;
82288;SDS011;71889;39.264;-120.910;2023-09-07T00:20:35;5.45;;;1.85;;
82288;SDS011;71889;39.264;-120.910;2023-09-07T00:23:02;5.53;;;1.80;;
82288;SDS011;71889;39.264;-120.910;2023-09-07T00:25:29;4.32;;;1.85;;
82288;SDS011;71889;39.264;-120.910;2023-09-07T00:27:56;3.60;;;1.80;;
82288;SDS011;71889;39.264;-120.910;2023-09-07T00:30:23;5.40;;;1.83;;
82288;SDS011;71889;39.264;-120.910;2023-09-07T00:32:52;4.15;;;1.65;;
82288;SDS011;71889;39.264;-120.910;2023-09-07T00:35:19;6.20;;;1.70;;
82288;SDS011;71889;39.264;-120.910;2023-09-07T00:37:46;4.40;;;1.63;;
82288;SDS011;71889;39.264;-120.910;2023-09-07T00:40:13;5.28;;;1.83;;
82288;SDS011;71889;39.264;-120.910;2023-09-07T00:42:40;4.88;;;1.73;;
82288;SDS011;71889;39.264;-120.910;2023-09-07T00:45:07;2.30;;;1.60;;
82288;SDS011;71889;39.264;-120.910;2023-09-07T00:47:34;2.58;;;1.45;;
82288;SDS011;71889;39.264;-120.910;2023-09-07T00:50:04;3.15;;;1.70;;
82288;SDS011;71889;39.264;-120.910;2023-09-07T00:52:32;4.03;;;1.98;;
82288;SDS011;71889;39.264;-120.910;2023-09-07T00:54:59;5.25;;;2.00;;
82288;SDS011;71889;39.264;-120.910;2023-09-07T00:57:27;4.63;;;1.65;;
82288;SDS011;71889;39.264;-120.910;2023-09-07T00:59:54;3.97;;;1.77;;
82288;SDS011;71889;39.264;-120.910;2023-09-07T01:02:21;2.85;;;1.70;;
82288;SDS011;71889;39.264;-120.910;2023-09-07T01:04:48;4.50;;;1.65;;
82288;SDS011;71889;39.264;-120.910;2023-09-07T01:07:21;4.88;;;2.25;;
82288;SDS011;71889;39.264;-120.910;2023-09-07T01:09:54;4.63;;;1.85;;
82288;SDS011;71889;39.264;-120.910;2023-09-07T01:12:22;4.65;;;1.65;;
82288;SDS011;71889;39.264;-120.910;2023-09-07T01:14:49;4.00;;;1.85;;
82288;SDS011;71889;39.264;-120.910;2023-09-07T01:17:15;5.43;;;2.03;;
82288;SDS011;71889;39.264;-120.910;2023-09-07T01:19:43;3.17;;;1.50;;
82288;SDS011;71889;39.264;-120.910;2023-09-07T01:22:12;3.45;;;1.70;;
82288;SDS011;71889;39.264;-120.910;2023-09-07T01:24:42;4.75;;;1.70;;
82288;SDS011;71889;39.264;-120.910;2023-09-07T01:27:10;5.15;;;1.92;;
82288;SDS011;71889;39.264;-120.910;2023-09-07T01:29:38;4.40;;;1.58;;
82288;SDS011;71889;39.264;-120.910;2023-09-07T01:32:05;4.82;;;1.92;;
82288;SDS011;71889;39.264;-120.910;2023-09-07T01:34:35;2.92;;;1.63;;
82288;SDS011;71889;39.264;-120.910;2023-09-07T01:37:02;3.17;;;1.83;;
82288;SDS011;71889;39.264;-120.910;2023-09-07T01:39:28;4.70;;;1.50;;
82288;SDS011;71889;39.264;-120.910;2023-09-07T01:41:55;4.28;;;1.90;;
82288;SDS011;71889;39.264;-120.910;2023-09-07T01:44:22;4.88;;;1.63;;
82288;SDS011;71889;39.264;-120.910;2023-09-07T01:46:49;5.40;;;1.80;;
82288;SDS011;71889;39.264;-120.910;2023-09-07T01:49:15;4.30;;;1.80;;
82288;SDS011;71889;39.264;-120.910;2023-09-07T01:52:00;2.90;;;1.73;;
82288;SDS011;71889;39.264;-120.910;2023-09-07T01:54:27;4.32;;;1.77;;
82288;SDS011;71889;39.264;-120.910;2023-09-07T01:56:53;3.75;;;2.03;;
82288;SDS011;71889;39.264;-120.910;2023-09-07T01:59:20;4.65;;;1.73;;
82288;SDS011;71889;39.264;-120.910;2023-09-07T02:01:47;3.03;;;1.50;;
82288;SDS011;71889;39.264;-120.910;2023-09-07T02:04:13;2.60;;;1.50;;
82288;SDS011;71889;39.264;-120.910;2023-09-07T02:06:40;3.88;;;1.73;;
82288;SDS011;71889;39.264;-120.910;2023-09-07T02:09:07;5.07;;;1.77;;
82288;SDS011;71889;39.264;-120.910;2023-09-07T02:11:33;6.95;;;1.95;;
82288;SDS011;71889;39.264;-120.910;2023-09-07T02:14:05;4.85;;;1.60;;
82288;SDS011;71889;39.264;-120.910;2023-09-07T02:16:31;6.05;;;1.90;;
82288;SDS011;71889;39.264;-120.910;2023-09-07T02:19:02;4.30;;;1.90;;
82288;SDS011;71889;39.264;-120.910;2023-09-07T02:21:29;4.25;;;1.92;;
82288;SDS011;71889;39.264;-120.910;2023-09-07T02:23:55;3.80;;;1.80;;
82288;SDS011;71889;39.264;-120.910;2023-09-07T02:26:22;4.90;;;1.95;;
82288;SDS011;71889;39.264;-120.910;2023-09-07T02:28:52;2.55;;;1.70;;
82288;SDS011;71889;39.264;-120.910;2023-09-07T02:31:18;5.82;;;1.90;;
82288;SDS011;71889;39.264;-120.910;2023-09-07T02:33:45;4.53;;;1.77;;
82288;SDS011;71889;39.264;-120.910;2023-09-07T02:36:12;3.08;;;1.80;;
82288;SDS011;71889;39.264;-120.910;2023-09-07T02:38:38;4.93;;;1.80;;
82288;SDS011;71889;39.264;-120.910;2023-09-07T02:41:05;4.20;;;1.92;;
82288;SDS011;71889;39.264;-120.910;2023-09-07T02:43:32;5.32;;;2.00;;
82288;SDS011;71889;39.264;-120.910;2023-09-07T02:45:59;8.55;;;1.92;;
82288;SDS011;71889;39.264;-120.910;2023-09-07T02:48:25;3.15;;;1.85;;
82288;SDS011;71889;39.264;-120.910;2023-09-07T02:51:10;5.63;;;2.20;;
82288;SDS011;71889;39.264;-120.910;2023-09-07T02:53:37;4.53;;;2.05;;
82288;SDS011;71889;39.264;-120.910;2023-09-07T02:56:04;6.22;;;1.90;;
82288;SDS011;71889;39.264;-120.910;2023-09-07T02:58:33;5.05;;;1.73;;
82288;SDS011;71889;39.264;-120.910;2023-09-07T03:00:59;5.40;;;2.47;;
82288;SDS011;71889;39.264;-120.910;2023-09-07T03:03:26;4.22;;;2.03;;
82288;SDS011;71889;39.264;-120.910;2023-09-07T03:05:53;4.18;;;2.10;;
82288;SDS011;71889;39.264;-120.910;2023-09-07T03:08:19;8.52;;;2.78;;
82288;SDS011;71889;39.264;-120.910;2023-09-07T03:10:46;3.85;;;1.92;;
82288;SDS011;71889;39.264;-120.910;2023-09-07T03:13:13;6.03;;;2.33;;
82288;SDS011;71889;39.264;-120.910;2023-09-07T03:15:39;7.45;;;2.28;;
82288;SDS011;71889;39.264;-120.910;2023-09-07T03:18:06;6.32;;;2.45;;
82288;SDS011;71889;39.264;-120.910;2023-09-07T03:20:33;3.50;;;2.08;;
82288;SDS011;71889;39.264;-120.910;2023-09-07T03:22:59;4.78;;;2.03;;
82288;SDS011;71889;39.264;-120.910;2023-09-07T03:25:27;4.47;;;2.28;;
82288;SDS011;71889;39.264;-120.910;2023-09-07T03:27:53;5.10;;;2.10;;
82288;SDS011;71889;39.264;-120.910;2023-09-07T03:30:20;6.15;;;2.30;;
82288;SDS011;71889;39.264;-120.910;2023-09-07T03:32:47;5.20;;;2.33;;
82288;SDS011;71889;39.264;-120.910;2023-09-07T03:35:13;6.13;;;2.72;;
82288;SDS011;71889;39.264;-120.910;2023-09-07T03:37:41;5.00;;;2.15;;
82288;SDS011;71889;39.264;-120.910;2023-09-07T03:40:08;7.50;;;2.20;;
82288;SDS011;71889;39.264;-120.910;2023-09-07T03:42:35;5.78;;;2.33;;
82288;SDS011;71889;39.264;-120.910;2023-09-07T03:45:03;4.05;;;2.38;;
82288;SDS011;71889;39.264;-120.910;2023-09-07T03:47:29;4.25;;;2.10;;
82288;SDS011;71889;39.264;-120.910;2023-09-07T03:49:56;5.65;;;2.17;;
82288;SDS011;71889;39.264;-120.910;2023-09-07T03:52:24;5.18;;;2.38;;
82288;SDS011;71889;39.264;-120.910;2023-09-07T03:54:53;3.20;;;2.00;;
82288;SDS011;71889;39.264;-120.910;2023-09-07T03:57:21;8.65;;;2.40;;
82288;SDS011;71889;39.264;-120.910;2023-09-07T03:59:48;5.32;;;2.20;;
82288;SDS011;71889;39.264;-120.910;2023-09-07T04:02:15;3.70;;;2.10;;
82288;SDS011;71889;39.264;-120.910;2023-09-07T04:04:48;5.15;;;2.17;;
82288;SDS011;71889;39.264;-120.910;2023-09-07T04:07:15;4.65;;;2.78;;
82288;SDS011;71889;39.264;-120.910;2023-09-07T04:09:42;3.78;;;2.15;;
82288;SDS011;71889;39.264;-120.910;2023-09-07T04:12:08;5.03;;;2.35;;
82288;SDS011;71889;39.264;-120.910;2023-09-07T04:14:35;7.05;;;2.20;;
82288;SDS011;71889;39.264;-120.910;2023-09-07T04:17:03;3.78;;;2.17;;
82288;SDS011;71889;39.264;-120.910;2023-09-07T04:19:29;5.93;;;2.28;;
82288;SDS011;71889;39.264;-120.910;2023-09-07T04:21:56;5.60;;;2.30;;
82288;SDS011;71889;39.264;-120.910;2023-09-07T04:24:24;7.72;;;2.45;;
82288;SDS011;71889;39.264;-120.910;2023-09-07T04:26:53;11.35;;;3.20;;
82288;SDS011;71889;39.264;-120.910;2023-09-07T04:29:19;4.78;;;2.20;;
82288;SDS011;71889;39.264;-120.910;2023-09-07T04:31:46;5.68;;;2.33;;
82288;SDS011;71889;39.264;-120.910;2023-09-07T04:34:13;6.10;;;2.63;;
82288;SDS011;71889;39.264;-120.910;2023-09-07T04:36:40;4.88;;;2.40;;
82288;SDS011;71889;39.264;-120.910;2023-09-07T04:39:06;9.95;;;2.70;;
82288;SDS011;71889;39.264;-120.910;2023-09-07T04:41:33;6.35;;;2.28;;
82288;SDS011;71889;39.264;-120.910;2023-09-07T04:44:00;7.28;;;2.30;;
82288;SDS011;71889;39.264;-120.910;2023-09-07T04:46:27;5.05;;;2.15;;
82288;SDS011;71889;39.264;-120.910;2023-09-07T04:48:53;8.57;;;2.35;;
82288;SDS011;71889;39.264;-120.910;2023-09-07T04:51:20;8.32;;;2.38;;
82288;SDS011;71889;39.264;-120.910;2023-09-07T04:53:49;4.70;;;2.22;;
82288;SDS011;71889;39.264;-120.910;2023-09-07T04:56:15;7.03;;;2.55;;
82288;SDS011;71889;39.264;-120.910;2023-09-07T04:58:42;3.92;;;2.10;;
82288;SDS011;71889;39.264;-120.910;2023-09-07T05:01:11;5.82;;;3.15;;
82288;SDS011;71889;39.264;-120.910;2023-09-07T05:03:39;4.32;;;2.42;;
82288;SDS011;71889;39.264;-120.910;2023-09-07T05:06:05;3.95;;;2.20;;
82288;SDS011;71889;39.264;-120.910;2023-09-07T05:08:32;5.15;;;2.60;;
82288;SDS011;71889;39.264;-120.910;2023-09-07T05:10:59;6.97;;;2.30;;
82288;SDS011;71889;39.264;-120.910;2023-09-07T05:13:28;6.72;;;2.70;;
82288;SDS011;71889;39.264;-120.910;2023-09-07T05:15:55;7.53;;;2.38;;
82288;SDS011;71889;39.264;-120.910;2023-09-07T05:18:22;6.40;;;2.30;;
82288;SDS011;71889;39.264;-120.910;2023-09-07T05:20:49;4.30;;;2.72;;
82288;SDS011;71889;39.264;-120.910;2023-09-07T05:23:19;4.30;;;2.03;;
82288;SDS011;71889;39.264;-120.910;2023-09-07T05:25:47;5.50;;;2.75;;
82288;SDS011;71889;39.264;-120.910;2023-09-07T05:28:15;5.60;;;2.25;;
82288;SDS011;71889;39.264;-120.910;2023-09-07T05:30:42;6.93;;;2.50;;
82288;SDS011;71889;39.264;-120.910;2023-09-07T05:33:10;5.18;;;2.30;;
82288;SDS011;71889;39.264;-120.910;2023-09-07T05:35:37;6.43;;;2.53;;
82288;SDS011;71889;39.264;-120.910;2023-09-07T05:38:04;7.70;;;2.58;;
82288;SDS011;71889;39.264;-120.910;2023-09-07T05:40:36;4.32;;;2.58;;
82288;SDS011;71889;39.264;-120.910;2023-09-07T05:43:03;5.43;;;2.40;;
82288;SDS011;71889;39.264;-120.910;2023-09-07T05:45:41;7.25;;;2.60;;
82288;SDS011;71889;39.264;-120.910;2023-09-07T05:48:08;5.55;;;2.33;;
82288;SDS011;71889;39.264;-120.910;2023-09-07T05:50:35;5.10;;;2.33;;
82288;SDS011;71889;39.264;-120.910;2023-09-07T05:53:05;8.73;;;2.42;;
82288;SDS011;71889;39.264;-120.910;2023-09-07T05:55:31;5.57;;;2.55;;
82288;SDS011;71889;39.264;-120.910;2023-09-07T05:57:58;7.93;;;2.97;;
82288;SDS011;71889;39.264;-120.910;2023-09-07T06:00:25;5.10;;;2.50;;
82288;SDS011;71889;39.264;-120.910;2023-09-07T06:02:53;5.55;;;2.33;;
82288;SDS011;71889;39.264;-120.910;2023-09-07T06:05:20;7.40;;;2.60;;
82288;SDS011;71889;39.264;-120.910;2023-09-07T06:07:47;8.48;;;2.63;;
82288;SDS011;71889;39.264;-120.910;2023-09-07T06:10:14;5.80;;;2.53;;
82288;SDS011;71889;39.264;-120.910;2023-09-07T06:12:40;5.07;;;2.40;;
82288;SDS011;71889;39.264;-120.910;2023-09-07T06:15:07;4.60;;;2.47;;
82288;SDS011;71889;39.264;-120.910;2023-09-07T06:17:35;6.68;;;2.42;;
82288;SDS011;71889;39.264;-120.910;2023-09-07T06:20:02;3.95;;;2.15;;
82288;SDS011;71889;39.264;-120.910;2023-09-07T06:22:30;4.20;;;2.15;;
82288;SDS011;71889;39.264;-120.910;2023-09-07T06:24:56;5.85;;;2.63;;
82288;SDS011;71889;39.264;-120.910;2023-09-07T06:27:23;4.15;;;2.33;;
82288;SDS011;71889;39.264;-120.910;2023-09-07T06:29:50;5.05;;;2.63;;
82288;SDS011;71889;39.264;-120.910;2023-09-07T06:32:17;9.32;;;2.30;;
82288;SDS011;71889;39.264;-120.910;2023-09-07T06:34:44;6.07;;;2.47;;
82288;SDS011;71889;39.264;-120.910;2023-09-07T06:37:11;5.03;;;2.40;;
82288;SDS011;71889;39.264;-120.910;2023-09-07T06:39:38;5.25;;;2.33;;
82288;SDS011;71889;39.264;-120.910;2023-09-07T06:42:08;6.10;;;2.83;;
82288;SDS011;71889;39.264;-120.910;2023-09-07T06:44:35;7.10;;;3.47;;
82288;SDS011;71889;39.264;-120.910;2023-09-07T06:47:02;6.38;;;2.45;;
82288;SDS011;71889;39.264;-120.910;2023-09-07T06:49:29;5.53;;;3.03;;
82288;SDS011;71889;39.264;-120.910;2023-09-07T06:51:56;4.55;;;2.10;;
82288;SDS011;71889;39.264;-120.910;2023-09-07T06:54:23;4.95;;;2.72;;
82288;SDS011;71889;39.264;-120.910;2023-09-07T06:56:50;3.83;;;2.50;;
82288;SDS011;71889;39.264;-120.910;2023-09-07T06:59:16;4.70;;;2.60;;
82288;SDS011;71889;39.264;-120.910;2023-09-07T07:01:43;7.00;;;2.50;;
82288;SDS011;71889;39.264;-120.910;2023-09-07T07:04:09;5.35;;;2.75;;
82288;SDS011;71889;39.264;-120.910;2023-09-07T07:06:36;12.18;;;3.67;;
82288;SDS011;71889;39.264;-120.910;2023-09-07T07:09:03;5.15;;;2.65;;
82288;SDS011;71889;39.264;-120.910;2023-09-07T07:11:29;5.82;;;2.50;;
82288;SDS011;71889;39.264;-120.910;2023-09-07T07:13:56;5.82;;;2.83;;
82288;SDS011;71889;39.264;-120.910;2023-09-07T07:16:23;6.07;;;2.80;;
82288;SDS011;71889;39.264;-120.910;2023-09-07T07:18:49;5.20;;;2.90;;
82288;SDS011;71889;39.264;-120.910;2023-09-07T07:21:16;5.53;;;2.33;;
82288;SDS011;71889;39.264;-120.910;2023-09-07T07:23:43;7.00;;;2.80;;
82288;SDS011;71889;39.264;-120.910;2023-09-07T07:26:09;4.80;;;2.92;;
82288;SDS011;71889;39.264;-120.910;2023-09-07T07:28:36;6.25;;;3.03;;
82288;SDS011;71889;39.264;-120.910;2023-09-07T07:31:09;12.40;;;3.10;;
82288;SDS011;71889;39.264;-120.910;2023-09-07T07:33:36;7.90;;;2.50;;
82288;SDS011;71889;39.264;-120.910;2023-09-07T07:36:03;5.35;;;3.28;;
82288;SDS011;71889;39.264;-120.910;2023-09-07T07:38:30;7.32;;;2.63;;
82288;SDS011;71889;39.264;-120.910;2023-09-07T07:40:57;6.15;;;2.58;;
82288;SDS011;71889;39.264;-120.910;2023-09-07T07:43:23;6.65;;;2.45;;
82288;SDS011;71889;39.264;-120.910;2023-09-07T07:45:51;6.93;;;2.65;;
82288;SDS011;71889;39.264;-120.910;2023-09-07T07:48:18;6.60;;;2.55;;
82288;SDS011;71889;39.264;-120.910;2023-09-07T07:50:45;8.50;;;2.90;;
82288;SDS011;71889;39.264;-120.910;2023-09-07T07:53:12;6.55;;;3.00;;
82288;SDS011;71889;39.264;-120.910;2023-09-07T07:55:40;5.03;;;3.10;;
82288;SDS011;71889;39.264;-120.910;2023-09-07T07:58:07;5.32;;;2.97;;
82288;SDS011;71889;39.264;-120.910;2023-09-07T08:00:34;4.70;;;2.70;;
82288;SDS011;71889;39.264;-120.910;2023-09-07T08:03:01;8.30;;;3.20;;
82288;SDS011;71889;39.264;-120.910;2023-09-07T08:05:32;5.07;;;2.42;;
82288;SDS011;71889;39.264;-120.910;2023-09-07T08:07:59;6.78;;;2.60;;
82288;SDS011;71889;39.264;-120.910;2023-09-07T08:10:26;4.70;;;2.78;;
82288;SDS011;71889;39.264;-120.910;2023-09-07T08:12:53;5.25;;;2.70;;
82288;SDS011;71889;39.264;-120.910;2023-09-07T08:15:20;7.85;;;3.00;;
82288;SDS011;71889;39.264;-120.910;2023-09-07T08:17:48;6.85;;;2.90;;
82288;SDS011;71889;39.264;-120.910;2023-09-07T08:20:17;5.70;;;2.60;;
82288;SDS011;71889;39.264;-120.910;2023-09-07T08:22:43;7.88;;;2.50;;
82288;SDS011;71889;39.264;-120.910;2023-09-07T08:25:11;5.95;;;2.83;;
82288;SDS011;71889;39.264;-120.910;2023-09-07T08:27:41;4.90;;;2.90;;
82288;SDS011;71889;39.264;-120.910;2023-09-07T08:30:13;5.28;;;2.63;;
82288;SDS011;71889;39.264;-120.910;2023-09-07T08:32:46;4.85;;;2.50;;
82288;SDS011;71889;39.264;-120.910;2023-09-07T08:35:13;5.05;;;2.72;;
82288;SDS011;71889;39.264;-120.910;2023-09-07T08:37:40;7.22;;;2.83;;
82288;SDS011;71889;39.264;-120.910;2023-09-07T08:40:07;6.45;;;2.42;;
82288;SDS011;71889;39.264;-120.910;2023-09-07T08:42:35;6.32;;;2.30;;
82288;SDS011;71889;39.264;-120.910;2023-09-07T08:45:02;4.15;;;2.60;;
82288;SDS011;71889;39.264;-120.910;2023-09-07T08:47:36;5.10;;;2.63;;
82288;SDS011;71889;39.264;-120.910;2023-09-07T08:50:04;5.60;;;2.60;;
82288;SDS011;71889;39.264;-120.910;2023-09-07T08:52:34;5.43;;;2.50;;
82288;SDS011;71889;39.264;-120.910;2023-09-07T08:55:02;6.93;;;2.78;;
82288;SDS011;71889;39.264;-120.910;2023-09-07T08:57:32;4.97;;;2.60;;
82288;SDS011;71889;39.264;-120.910;2023-09-07T08:59:58;6.97;;;2.70;;
82288;SDS011;71889;39.264;-120.910;2023-09-07T09:02:25;5.35;;;2.60;;
82288;SDS011;71889;39.264;-120.910;2023-09-07T09:04:52;5.65;;;2.65;;
82288;SDS011;71889;39.264;-120.910;2023-09-07T09:07:19;8.98;;;3.05;;
82288;SDS011;71889;39.264;-120.910;2023-09-07T09:09:46;9.38;;;2.75;;
82288;SDS011;71889;39.264;-120.910;2023-09-07T09:12:13;4.95;;;2.85;;
82288;SDS011;71889;39.264;-120.910;2023-09-07T09:14:43;7.68;;;2.83;;
82288;SDS011;71889;39.264;-120.910;2023-09-07T09:17:13;7.82;;;2.83;;
82288;SDS011;71889;39.264;-120.910;2023-09-07T09:19:40;4.63;;;2.55;;
82288;SDS011;71889;39.264;-120.910;2023-09-07T09:22:07;9.95;;;3.20;;
82288;SDS011;71889;39.264;-120.910;2023-09-07T09:24:34;6.38;;;2.75;;
82288;SDS011;71889;39.264;-120.910;2023-09-07T09:27:00;4.43;;;2.67;;
82288;SDS011;71889;39.264;-120.910;2023-09-07T09:29:28;5.53;;;2.42;;
82288;SDS011;71889;39.264;-120.910;2023-09-07T09:31:55;4.75;;;2.53;;
82288;SDS011;71889;39.264;-120.910;2023-09-07T09:34:22;6.53;;;2.80;;
82288;SDS011;71889;39.264;-120.910;2023-09-07T09:36:48;6.93;;;2.60;;
82288;SDS011;71889;39.264;-120.910;2023-09-07T09:39:24;4.50;;;2.58;;
82288;SDS011;71889;39.264;-120.910;2023-09-07T09:41:52;5.10;;;2.83;;
82288;SDS011;71889;39.264;-120.910;2023-09-07T09:44:20;5.15;;;2.60;;
82288;SDS011;71889;39.264;-120.910;2023-09-07T09:46:51;6.80;;;2.83;;
82288;SDS011;71889;39.264;-120.910;2023-09-07T09:49:21;5.57;;;2.60;;
82288;SDS011;71889;39.264;-120.910;2023-09-07T09:51:49;5.38;;;2.90;;
82288;SDS011;71889;39.264;-120.910;2023-09-07T09:54:23;4.05;;;2.63;;
82288;SDS011;71889;39.264;-120.910;2023-09-07T09:56:52;5.18;;;2.75;;
82288;SDS011;71889;39.264;-120.910;2023-09-07T09:59:20;6.07;;;3.00;;
82288;SDS011;71889;39.264;-120.910;2023-09-07T10:01:47;4.38;;;2.67;;
82288;SDS011;71889;39.264;-120.910;2023-09-07T10:04:16;5.18;;;2.72;;
82288;SDS011;71889;39.264;-120.910;2023-09-07T10:06:53;7.93;;;3.38;;
82288;SDS011;71889;39.264;-120.910;2023-09-07T10:09:20;7.28;;;3.05;;
82288;SDS011;71889;39.264;-120.910;2023-09-07T10:11:57;7.38;;;2.70;;
82288;SDS011;71889;39.264;-120.910;2023-09-07T10:14:25;5.13;;;3.15;;
82288;SDS011;71889;39.264;-120.910;2023-09-07T10:16:52;6.88;;;3.00;;
82288;SDS011;71889;39.264;-120.910;2023-09-07T10:19:25;5.07;;;2.72;;
82288;SDS011;71889;39.264;-120.910;2023-09-07T10:21:53;9.25;;;3.00;;
82288;SDS011;71889;39.264;-120.910;2023-09-07T10:24:32;6.22;;;2.58;;
82288;SDS011;71889;39.264;-120.910;2023-09-07T10:27:07;5.57;;;3.03;;
82288;SDS011;71889;39.264;-120.910;2023-09-07T10:29:42;5.93;;;2.97;;
82288;SDS011;71889;39.264;-120.910;2023-09-07T10:32:09;4.45;;;2.95;;
82288;SDS011;71889;39.264;-120.910;2023-09-07T10:34:40;5.30;;;2.70;;
82288;SDS011;71889;39.264;-120.910;2023-09-07T10:37:11;4.80;;;2.88;;
82288;SDS011;71889;39.264;-120.910;2023-09-07T10:39:39;6.70;;;2.90;;
82288;SDS011;71889;39.264;-120.910;2023-09-07T10:44:34;5.30;;;3.15;;
82288;SDS011;71889;39.264;-120.910;2023-09-07T10:47:01;7.28;;;2.92;;
82288;SDS011;71889;39.264;-120.910;2023-09-07T10:49:30;5.47;;;2.83;;
82288;SDS011;71889;39.264;-120.910;2023-09-07T10:51:56;7.95;;;2.83;;
82288;SDS011;71889;39.264;-120.910;2023-09-07T10:54:23;4.90;;;2.88;;
82288;SDS011;71889;39.264;-120.910;2023-09-07T10:56:50;7.38;;;3.05;;
82288;SDS011;71889;39.264;-120.910;2023-09-07T10:59:17;5.97;;;2.78;;
82288;SDS011;71889;39.264;-120.910;2023-09-07T11:01:44;4.30;;;2.72;;
82288;SDS011;71889;39.264;-120.910;2023-09-07T11:04:11;5.18;;;3.17;;
82288;SDS011;71889;39.264;-120.910;2023-09-07T11:06:39;5.88;;;3.20;;
82288;SDS011;71889;39.264;-120.910;2023-09-07T11:09:06;7.15;;;3.35;;
82288;SDS011;71889;39.264;-120.910;2023-09-07T11:11:34;7.55;;;2.88;;
82288;SDS011;71889;39.264;-120.910;2023-09-07T11:14:04;4.88;;;2.90;;
82288;SDS011;71889;39.264;-120.910;2023-09-07T11:16:32;7.25;;;3.10;;
82288;SDS011;71889;39.264;-120.910;2023-09-07T11:19:06;7.45;;;3.42;;
82288;SDS011;71889;39.264;-120.910;2023-09-07T11:21:36;5.05;;;2.72;;
82288;SDS011;71889;39.264;-120.910;2023-09-07T11:24:03;5.38;;;3.00;;
82288;SDS011;71889;39.264;-120.910;2023-09-07T11:26:43;6.97;;;3.05;;
82288;SDS011;71889;39.264;-120.910;2023-09-07T11:29:14;5.40;;;3.17;;
82288;SDS011;71889;39.264;-120.910;2023-09-07T11:31:41;7.63;;;3.53;;
82288;SDS011;71889;39.264;-120.910;2023-09-07T11:34:08;5.93;;;2.90;;
82288;SDS011;71889;39.264;-120.910;2023-09-07T11:36:36;5.82;;;3.03;;
82288;SDS011;71889;39.264;-120.910;2023-09-07T11:39:03;6.13;;;3.20;;
82288;SDS011;71889;39.264;-120.910;2023-09-07T11:41:40;6.53;;;3.08;;
82288;SDS011;71889;39.264;-120.910;2023-09-07T11:44:07;6.35;;;3.15;;
82288;SDS011;71889;39.264;-120.910;2023-09-07T11:46:34;5.68;;;3.13;;
82288;SDS011;71889;39.264;-120.910;2023-09-07T11:49:01;6.80;;;3.10;;
82288;SDS011;71889;39.264;-120.910;2023-09-07T11:51:30;9.32;;;3.20;;
82288;SDS011;71889;39.264;-120.910;2023-09-07T11:53:56;7.25;;;3.15;;
82288;SDS011;71889;39.264;-120.910;2023-09-07T11:56:24;7.82;;;3.55;;
82288;SDS011;71889;39.264;-120.910;2023-09-07T11:58:50;8.07;;;2.80;;
82288;SDS011;71889;39.264;-120.910;2023-09-07T12:01:17;4.95;;;3.00;;
82288;SDS011;71889;39.264;-120.910;2023-09-07T12:06:19;7.90;;;4.05;;
82288;SDS011;71889;39.264;-120.910;2023-09-07T12:09:03;5.57;;;3.28;;
82288;SDS011;71889;39.264;-120.910;2023-09-07T12:11:30;9.07;;;3.00;;
82288;SDS011;71889;39.264;-120.910;2023-09-07T12:13:57;10.10;;;4.40;;
82288;SDS011;71889;39.264;-120.910;2023-09-07T12:16:27;7.13;;;3.20;;
82288;SDS011;71889;39.264;-120.910;2023-09-07T12:18:54;5.22;;;2.90;;
82288;SDS011;71889;39.264;-120.910;2023-09-07T12:21:20;12.13;;;3.42;;
82288;SDS011;71889;39.264;-120.910;2023-09-07T12:23:47;5.85;;;3.05;;
82288;SDS011;71889;39.264;-120.910;2023-09-07T12:26:14;4.90;;;3.17;;
82288;SDS011;71889;39.264;-120.910;2023-09-07T12:28:42;8.00;;;3.33;;
82288;SDS011;71889;39.264;-120.910;2023-09-07T12:31:09;5.53;;;3.30;;
82288;SDS011;71889;39.264;-120.910;2023-09-07T12:33:37;5.65;;;3.05;;
82288;SDS011;71889;39.264;-120.910;2023-09-07T12:36:04;7.10;;;3.40;;
82288;SDS011;71889;39.264;-120.910;2023-09-07T12:38:34;6.97;;;3.70;;
82288;SDS011;71889;39.264;-120.910;2023-09-07T12:41:01;6.72;;;3.28;;
82288;SDS011;71889;39.264;-120.910;2023-09-07T12:43:28;6.60;;;3.05;;
82288;SDS011;71889;39.264;-120.910;2023-09-07T12:45:54;7.40;;;3.58;;
82288;SDS011;71889;39.264;-120.910;2023-09-07T12:48:21;7.22;;;3.25;;
82288;SDS011;71889;39.264;-120.910;2023-09-07T12:50:48;5.78;;;3.10;;
82288;SDS011;71889;39.264;-120.910;2023-09-07T12:53:14;6.75;;;3.60;;
82288;SDS011;71889;39.264;-120.910;2023-09-07T12:55:42;6.75;;;3.63;;
82288;SDS011;71889;39.264;-120.910;2023-09-07T12:58:08;8.85;;;3.00;;
82288;SDS011;71889;39.264;-120.910;2023-09-07T13:00:35;5.07;;;3.40;;
82288;SDS011;71889;39.264;-120.910;2023-09-07T13:03:02;6.70;;;3.10;;
82288;SDS011;71889;39.264;-120.910;2023-09-07T13:05:28;8.30;;;3.58;;
82288;SDS011;71889;39.264;-120.910;2023-09-07T13:07:55;5.80;;;3.17;;
82288;SDS011;71889;39.264;-120.910;2023-09-07T13:10:24;6.55;;;3.47;;
82288;SDS011;71889;39.264;-120.910;2023-09-07T13:12:51;5.32;;;3.40;;
82288;SDS011;71889;39.264;-120.910;2023-09-07T13:15:17;6.78;;;3.42;;
82288;SDS011;71889;39.264;-120.910;2023-09-07T13:17:44;5.32;;;3.10;;
82288;SDS011;71889;39.264;-120.910;2023-09-07T13:20:11;6.25;;;3.38;;
82288;SDS011;71889;39.264;-120.910;2023-09-07T13:22:39;5.43;;;3.20;;
82288;SDS011;71889;39.264;-120.910;2023-09-07T13:25:06;6.25;;;3.28;;
82288;SDS011;71889;39.264;-120.910;2023-09-07T13:27:33;7.13;;;3.67;;
82288;SDS011;71889;39.264;-120.910;2023-09-07T13:30:00;8.18;;;3.90;;
82288;SDS011;71889;39.264;-120.910;2023-09-07T13:32:27;5.70;;;2.92;;
82288;SDS011;71889;39.264;-120.910;2023-09-07T13:34:53;6.63;;;3.28;;
82288;SDS011;71889;39.264;-120.910;2023-09-07T13:37:20;8.52;;;4.40;;
82288;SDS011;71889;39.264;-120.910;2023-09-07T13:39:47;6.38;;;3.70;;
82288;SDS011;71889;39.264;-120.910;2023-09-07T13:42:14;5.13;;;3.58;;
82288;SDS011;71889;39.264;-120.910;2023-09-07T13:44:41;7.72;;;3.25;;
82288;SDS011;71889;39.264;-120.910;2023-09-07T13:47:07;5.10;;;3.05;;
82288;SDS011;71889;39.264;-120.910;2023-09-07T13:49:34;6.47;;;3.60;;
82288;SDS011;71889;39.264;-120.910;2023-09-07T13:52:01;9.27;;;3.45;;
82288;SDS011;71889;39.264;-120.910;2023-09-07T13:54:28;7.72;;;3.03;;
82288;SDS011;71889;39.264;-120.910;2023-09-07T13:56:55;5.28;;;3.25;;
82288;SDS011;71889;39.264;-120.910;2023-09-07T13:59:22;7.13;;;3.13;;
82288;SDS011;71889;39.264;-120.910;2023-09-07T14:01:51;7.88;;;3.60;;
82288;SDS011;71889;39.264;-120.910;2023-09-07T14:04:17;5.72;;;3.47;;
82288;SDS011;71889;39.264;-120.910;2023-09-07T14:06:44;6.78;;;3.80;;
82288;SDS011;71889;39.264;-120.910;2023-09-07T14:09:10;5.75;;;3.10;;
82288;SDS011;71889;39.264;-120.910;2023-09-07T14:11:37;5.75;;;3.17;;
82288;SDS011;71889;39.264;-120.910;2023-09-07T14:14:04;6.18;;;3.33;;
82288;SDS011;71889;39.264;-120.910;2023-09-07T14:16:31;6.43;;;3.65;;